createdAt,value
2023-02-11T00:00:15.027Z,101110.00
2023-02-11T00:01:48.307Z,101115.00
2023-02-11T00:03:23.155Z,101114.00
2023-02-11T00:04:56.618Z,101106.00
2023-02-11T00:06:32.153Z,101108.00
2023-02-11T00:08:06.063Z,101109.00
2023-02-11T00:09:39.419Z,101107.00
2023-02-11T00:11:14.940Z,101110.00
2023-02-11T00:12:48.128Z,101096.00
2023-02-11T00:14:21.291Z,101091.00
2023-02-11T00:15:54.057Z,101100.00
2023-02-11T00:17:27.419Z,101091.00
2023-02-11T00:19:03.652Z,101087.00
2023-02-11T00:20:39.306Z,101091.00
2023-02-11T00:22:12.552Z,101086.00
2023-02-11T00:23:47.151Z,101087.00
2023-02-11T00:25:19.370Z,101078.00
2023-02-11T00:26:52.557Z,101072.00
2023-02-11T00:28:24.813Z,101078.00
2023-02-11T00:29:58.046Z,101075.00
2023-02-11T00:31:31.328Z,101067.00
2023-02-11T00:33:04.426Z,101072.00
2023-02-11T00:34:40.233Z,101068.00
2023-02-11T00:36:18.578Z,101070.00
2023-02-11T00:37:54.450Z,101062.00
2023-02-11T00:39:27.788Z,101056.00
2023-02-11T00:41:00.029Z,101055.00
2023-02-11T00:42:35.469Z,101060.00
2023-02-11T00:44:08.668Z,101057.00
2023-02-11T00:45:40.909Z,101063.00
2023-02-11T00:47:14.285Z,101063.00
2023-02-11T00:48:51.640Z,101075.00
2023-02-11T00:50:29.030Z,101070.00
2023-02-11T00:52:02.377Z,101069.00
2023-02-11T00:53:36.935Z,101076.00
2023-02-11T00:55:10.470Z,101088.00
2023-02-11T00:56:43.757Z,101096.00
2023-02-11T00:58:16.943Z,101093.00
2023-02-11T00:59:50.534Z,101087.00
2023-02-11T01:01:24.984Z,101089.00
2023-02-11T01:02:58.413Z,101094.00
2023-02-11T01:04:31.709Z,101083.00
2023-02-11T01:06:07.474Z,101082.00
2023-02-11T01:07:42.051Z,101083.00
2023-02-11T01:09:15.406Z,101075.00
2023-02-11T01:10:56.559Z,101065.00
2023-02-11T01:12:29.797Z,101064.00
2023-02-11T01:14:04.613Z,101061.00
2023-02-11T01:15:37.851Z,101054.00
2023-02-11T01:17:11.154Z,101054.00
2023-02-11T01:18:44.620Z,101058.00
2023-02-11T01:20:22.851Z,101063.00
2023-02-11T01:21:57.740Z,101064.00
2023-02-11T01:23:31.263Z,101069.00
2023-02-11T01:25:05.082Z,101057.00
2023-02-11T01:26:38.333Z,101062.00
2023-02-11T01:28:18.653Z,101060.00
2023-02-11T01:29:51.877Z,101055.00
2023-02-11T01:31:26.918Z,101049.00
2023-02-11T01:33:00.178Z,101051.00
2023-02-11T01:34:33.328Z,101059.00
2023-02-11T01:36:08.900Z,101051.00
2023-02-11T01:37:43.494Z,101061.00
2023-02-11T01:39:15.702Z,101064.00
2023-02-11T01:40:50.906Z,101065.00
2023-02-11T01:42:26.779Z,101065.00
2023-02-11T01:44:00.097Z,101073.00
2023-02-11T01:46:13.551Z,101074.00
2023-02-11T01:47:46.688Z,101073.00
2023-02-11T01:49:26.201Z,101070.00
2023-02-11T01:51:08.005Z,101076.00
2023-02-11T01:52:46.211Z,101069.00
2023-02-11T01:54:43.517Z,101072.00
2023-02-11T01:56:36.432Z,101075.00
2023-02-11T01:58:09.653Z,101083.00
2023-02-11T01:59:53.209Z,101079.00
2023-02-11T02:01:30.223Z,101066.00
2023-02-11T02:03:10.802Z,101071.00
2023-02-11T02:04:54.042Z,101059.00
2023-02-11T02:06:36.005Z,101057.00
2023-02-11T02:08:18.692Z,101052.00
2023-02-11T02:10:00.414Z,101042.00
2023-02-11T02:11:33.955Z,101043.00
2023-02-11T02:13:07.387Z,101046.00
2023-02-11T02:14:40.504Z,101052.00
2023-02-11T02:16:17.421Z,101046.00
2023-02-11T02:18:01.474Z,101051.00
2023-02-11T02:20:24.350Z,101050.00
2023-02-11T02:22:53.901Z,101049.00
2023-02-11T02:25:04.710Z,101035.00
2023-02-11T02:27:10.006Z,101041.00
2023-02-11T02:29:24.453Z,101040.00
2023-02-11T02:31:29.449Z,101031.00
2023-02-11T02:33:25.375Z,101035.00
2023-02-11T02:35:14.324Z,101025.00
2023-02-11T02:37:02.007Z,101016.00
2023-02-11T02:38:41.702Z,101013.00
2023-02-11T02:40:21.679Z,101011.00
2023-02-11T02:41:57.148Z,101013.00
2023-02-11T02:43:32.223Z,101023.00
2023-02-11T02:45:06.959Z,101019.00
2023-02-11T02:46:40.520Z,101019.00
2023-02-11T02:48:30.523Z,101023.00
2023-02-11T02:50:04.416Z,101020.00
2023-02-11T02:52:08.322Z,101015.00
2023-02-11T02:53:55.849Z,101018.00
2023-02-11T02:55:47.739Z,101007.00
2023-02-11T02:57:33.299Z,101015.00
2023-02-11T02:59:28.265Z,101010.00
2023-02-11T03:01:15.145Z,101006.00
2023-02-11T03:03:09.753Z,101004.00
2023-02-11T03:04:51.754Z,101013.00
2023-02-11T03:06:33.704Z,100999.00
2023-02-11T03:08:13.209Z,100997.00
2023-02-11T03:09:55.774Z,100995.00
2023-02-11T03:11:30.236Z,100996.00
2023-02-11T03:13:05.838Z,100994.00
2023-02-11T03:14:40.734Z,100997.00
2023-02-11T03:16:19.864Z,100997.00
2023-02-11T03:17:56.733Z,101004.00
2023-02-11T03:19:37.506Z,101009.00
2023-02-11T03:21:13.937Z,101001.00
2023-02-11T03:22:53.275Z,101011.00
2023-02-11T03:24:33.641Z,100991.00
2023-02-11T03:26:15.683Z,100991.00
2023-02-11T03:27:56.157Z,100977.00
2023-02-11T03:29:40.079Z,100986.00
2023-02-11T03:31:20.435Z,100988.00
2023-02-11T03:33:01.405Z,100994.00
2023-02-11T03:34:45.089Z,100994.00
2023-02-11T03:36:27.689Z,101006.00
2023-02-11T03:38:08.479Z,101006.00
2023-02-11T03:39:47.796Z,101012.00
2023-02-11T03:41:24.163Z,101010.00
2023-02-11T03:43:02.228Z,101017.00
2023-02-11T03:44:42.039Z,101020.00
2023-02-11T03:46:20.537Z,101012.00
2023-02-11T03:48:02.784Z,101014.00
2023-02-11T03:49:40.394Z,101014.00
2023-02-11T03:51:16.807Z,101014.00
2023-02-11T03:52:51.602Z,101003.00
2023-02-11T03:54:31.258Z,101019.00
2023-02-11T03:56:10.011Z,101010.00
2023-02-11T03:57:43.353Z,101000.00
2023-02-11T03:59:16.519Z,101001.00
2023-02-11T04:00:49.910Z,100998.00
2023-02-11T04:02:26.915Z,100992.00
2023-02-11T04:04:00.228Z,100988.00
2023-02-11T04:05:33.855Z,100985.00
2023-02-11T04:07:07.051Z,100985.00
2023-02-11T04:08:41.750Z,100983.00
2023-02-11T04:10:15.166Z,100985.00
2023-02-11T04:11:47.429Z,100977.00
2023-02-11T04:13:20.709Z,100979.00
2023-02-11T04:14:53.937Z,100989.00
2023-02-11T04:16:26.363Z,100978.00
2023-02-11T04:17:59.533Z,100984.00
2023-02-11T04:19:33.173Z,100994.00
2023-02-11T04:21:07.019Z,100992.00
2023-02-11T04:22:42.346Z,100995.00
2023-02-11T04:24:15.947Z,100989.00
2023-02-11T04:25:50.797Z,100987.00
2023-02-11T04:27:24.663Z,100986.00
2023-02-11T04:28:57.816Z,100984.00
2023-02-11T04:30:30.009Z,100988.00
2023-02-11T04:32:03.259Z,100972.00
2023-02-11T04:33:38.065Z,100973.00
2023-02-11T04:35:11.200Z,100974.00
2023-02-11T04:36:44.475Z,100972.00
2023-02-11T04:38:18.130Z,100976.00
2023-02-11T04:39:52.629Z,100983.00
2023-02-11T04:41:25.803Z,100988.00
2023-02-11T04:42:58.928Z,100987.00
2023-02-11T04:44:32.868Z,100987.00
2023-02-11T04:46:06.617Z,101006.00
2023-02-11T04:47:39.890Z,101001.00
2023-02-11T04:49:15.146Z,101005.00
2023-02-11T04:50:59.442Z,101004.00
2023-02-11T04:52:45.828Z,101011.00
2023-02-11T04:54:21.934Z,101010.00
2023-02-11T04:55:56.603Z,101005.00
2023-02-11T04:57:28.928Z,100999.00
2023-02-11T04:59:02.118Z,101002.00
2023-02-11T05:00:35.408Z,101000.00
2023-02-11T05:02:08.673Z,101004.00
2023-02-11T05:03:42.678Z,100995.00
2023-02-11T05:05:15.874Z,100997.00
2023-02-11T05:06:49.028Z,100998.00
2023-02-11T05:08:22.424Z,100989.00
2023-02-11T05:09:54.831Z,100985.00
2023-02-11T05:11:29.318Z,100997.00
2023-02-11T05:13:02.552Z,100986.00
2023-02-11T05:14:35.851Z,100997.00
2023-02-11T05:16:09.078Z,100985.00
2023-02-11T05:17:42.574Z,100985.00
2023-02-11T05:19:15.734Z,100978.00
2023-02-11T05:20:48.009Z,100982.00
2023-02-11T05:22:23.798Z,100989.00
2023-02-11T05:23:58.262Z,100986.00
2023-02-11T05:25:31.450Z,100979.00
2023-02-11T05:27:06.174Z,100979.00
2023-02-11T05:28:38.894Z,100986.00
2023-02-11T05:30:13.072Z,100985.00
2023-02-11T05:31:45.334Z,100986.00
2023-02-11T05:33:18.590Z,100985.00
2023-02-11T05:34:54.288Z,100987.00
2023-02-11T05:36:27.610Z,100985.00
2023-02-11T05:38:00.812Z,100979.00
2023-02-11T05:39:34.202Z,100973.00
2023-02-11T05:41:08.184Z,100977.00
2023-02-11T05:42:43.044Z,100980.00
2023-02-11T05:44:21.613Z,100973.00
2023-02-11T05:45:55.633Z,100985.00
2023-02-11T05:47:28.890Z,100982.00
2023-02-11T05:49:02.121Z,100980.00
2023-02-11T05:50:35.341Z,100989.00
2023-02-11T05:52:08.697Z,100990.00
2023-02-11T05:53:41.867Z,100983.00
2023-02-11T05:55:15.390Z,100991.00
2023-02-11T05:56:47.655Z,100999.00
2023-02-11T05:58:22.229Z,100999.00
2023-02-11T05:59:55.374Z,100999.00
2023-02-11T06:01:28.831Z,101003.00
2023-02-11T06:03:01.584Z,100991.00
2023-02-11T06:04:34.773Z,101006.00
2023-02-11T06:06:13.444Z,101003.00
2023-02-11T06:07:46.921Z,100991.00
2023-02-11T06:09:20.363Z,100993.00
2023-02-11T06:10:53.556Z,100988.00
2023-02-11T06:12:27.043Z,100988.00
2023-02-11T06:14:02.760Z,100985.00
2023-02-11T06:15:36.242Z,100988.00
2023-02-11T06:17:09.538Z,100985.00
2023-02-11T06:18:42.701Z,100994.00
2023-02-11T06:20:16.072Z,100995.00
2023-02-11T06:21:49.273Z,100990.00
2023-02-11T06:23:23.133Z,100997.00
2023-02-11T06:25:01.730Z,100989.00
2023-02-11T06:26:36.847Z,100996.00
2023-02-11T06:28:10.748Z,100997.00
2023-02-11T06:29:45.740Z,100988.00
2023-02-11T06:31:19.066Z,100984.00
2023-02-11T06:32:52.313Z,100986.00
2023-02-11T06:34:25.694Z,100989.00
2023-02-11T06:35:57.861Z,100982.00
2023-02-11T06:37:31.052Z,100991.00
2023-02-11T06:39:04.479Z,100987.00
2023-02-11T06:40:37.634Z,100999.00
2023-02-11T06:42:11.339Z,101000.00
2023-02-11T06:43:44.880Z,101002.00
2023-02-11T06:45:20.524Z,101001.00
2023-02-11T06:46:53.931Z,101001.00
2023-02-11T06:48:27.166Z,100996.00
2023-02-11T06:50:00.319Z,100995.00
2023-02-11T06:51:33.548Z,100986.00
2023-02-11T06:53:06.761Z,100999.00
2023-02-11T06:54:40.698Z,101000.00
2023-02-11T06:56:19.903Z,101003.00
2023-02-11T06:57:53.309Z,101002.00
2023-02-11T06:59:26.521Z,101003.00
2023-02-11T07:01:01.420Z,101009.00
2023-02-11T07:02:34.871Z,101009.00
2023-02-11T07:04:08.263Z,101005.00
2023-02-11T07:05:44.100Z,101023.00
2023-02-11T07:07:17.244Z,101013.00
2023-02-11T07:08:50.783Z,101004.00
2023-02-11T07:10:23.880Z,101006.00
2023-02-11T07:11:57.145Z,101014.00
2023-02-11T07:13:30.536Z,101015.00
2023-02-11T07:15:04.207Z,101005.00
2023-02-11T07:16:39.995Z,101013.00
2023-02-11T07:18:14.620Z,101019.00
2023-02-11T07:19:47.880Z,101016.00
2023-02-11T07:21:24.180Z,101017.00
2023-02-11T07:22:57.728Z,101018.00
2023-02-11T07:24:30.937Z,101021.00
2023-02-11T07:26:05.453Z,101022.00
2023-02-11T07:27:38.631Z,101019.00
2023-02-11T07:29:11.837Z,101024.00
2023-02-11T07:30:45.012Z,101019.00
2023-02-11T07:32:19.837Z,101023.00
2023-02-11T07:33:55.105Z,101029.00
2023-02-11T07:35:28.371Z,101024.00
2023-02-11T07:37:01.615Z,101026.00
2023-02-11T07:38:36.595Z,101024.00
2023-02-11T07:40:11.091Z,101032.00
2023-02-11T07:41:47.652Z,101032.00
2023-02-11T07:43:20.955Z,101030.00
2023-02-11T07:44:54.273Z,101026.00
2023-02-11T07:46:28.507Z,101030.00
2023-02-11T07:48:03.152Z,101035.00
2023-02-11T07:49:36.423Z,101029.00
2023-02-11T07:51:13.209Z,101040.00
2023-02-11T07:52:46.351Z,101033.00
2023-02-11T07:54:19.557Z,101035.00
2023-02-11T07:55:52.968Z,101042.00
2023-02-11T07:57:26.284Z,101037.00
2023-02-11T07:59:04.134Z,101041.00
2023-02-11T08:00:37.396Z,101037.00
2023-02-11T08:02:10.856Z,101031.00
2023-02-11T08:03:45.875Z,101030.00
2023-02-11T08:05:19.200Z,101038.00
2023-02-11T08:06:55.883Z,101036.00
2023-02-11T08:08:31.104Z,101038.00
2023-02-11T08:10:04.869Z,101044.00
2023-02-11T08:11:38.407Z,101041.00
2023-02-11T08:13:11.688Z,101047.00
2023-02-11T08:14:44.851Z,101046.00
2023-02-11T08:16:23.031Z,101047.00
2023-02-11T08:17:56.200Z,101040.00
2023-02-11T08:19:31.617Z,101038.00
2023-02-11T08:21:06.932Z,101043.00
2023-02-11T08:22:40.175Z,101045.00
2023-02-11T08:24:13.750Z,101050.00
2023-02-11T08:25:46.942Z,101051.00
2023-02-11T08:27:20.349Z,101053.00
2023-02-11T08:28:56.256Z,101055.00
2023-02-11T08:30:29.471Z,101053.00
2023-02-11T08:32:03.485Z,101059.00
2023-02-11T08:33:37.670Z,101058.00
2023-02-11T08:35:12.920Z,101056.00
2023-02-11T08:36:48.458Z,101064.00
2023-02-11T08:38:21.760Z,101064.00
2023-02-11T08:39:54.931Z,101061.00
2023-02-11T08:41:28.271Z,101069.00
2023-02-11T08:43:01.408Z,101062.00
2023-02-11T08:44:34.573Z,101063.00
2023-02-11T08:46:08.449Z,101082.00
2023-02-11T08:47:41.603Z,101073.00
2023-02-11T08:49:15.779Z,101070.00
2023-02-11T08:50:50.688Z,101076.00
2023-02-11T08:52:23.993Z,101082.00
2023-02-11T08:53:58.437Z,101075.00
2023-02-11T08:55:32.102Z,101089.00
2023-02-11T08:57:06.125Z,101084.00
2023-02-11T08:58:39.728Z,101092.00
2023-02-11T09:00:14.878Z,101094.00
2023-02-11T09:01:48.759Z,101088.00
2023-02-11T09:03:22.388Z,101096.00
2023-02-11T09:04:55.559Z,101093.00
2023-02-11T09:06:30.969Z,101101.00
2023-02-11T09:08:04.258Z,101105.00
2023-02-11T09:09:37.436Z,101099.00
2023-02-11T09:11:11.334Z,101103.00
2023-02-11T09:12:44.609Z,101105.00
2023-02-11T09:14:21.196Z,101107.00
2023-02-11T09:15:54.595Z,101096.00
2023-02-11T09:17:28.081Z,101100.00
2023-02-11T09:19:05.035Z,101101.00
2023-02-11T09:20:38.259Z,101105.00
2023-02-11T09:22:12.798Z,101109.00
2023-02-11T09:23:47.710Z,101121.00
2023-02-11T09:25:20.904Z,101112.00
2023-02-11T09:26:54.326Z,101117.00
2023-02-11T09:28:27.510Z,101110.00
2023-02-11T09:30:00.748Z,101124.00
2023-02-11T09:31:35.377Z,101121.00
2023-02-11T09:33:08.731Z,101119.00
2023-02-11T09:34:42.210Z,101120.00
2023-02-11T09:36:18.840Z,101113.00
2023-02-11T09:37:53.384Z,101119.00
2023-02-11T09:39:29.219Z,101122.00
2023-02-11T09:41:07.544Z,101121.00
2023-02-11T09:42:48.997Z,101130.00
2023-02-11T09:44:26.113Z,101119.00
2023-02-11T09:46:00.248Z,101114.00
2023-02-11T09:47:39.227Z,101120.00
2023-02-11T09:49:24.394Z,101133.00
2023-02-11T09:51:01.689Z,101124.00
2023-02-11T09:52:44.271Z,101130.00
2023-02-11T09:54:28.515Z,101136.00
2023-02-11T09:56:12.177Z,101131.00
2023-02-11T09:57:45.906Z,101117.00
2023-02-11T09:59:20.139Z,101130.00
2023-02-11T10:01:05.511Z,101126.00
2023-02-11T10:03:02.079Z,101133.00
2023-02-11T10:05:04.741Z,101127.00
2023-02-11T10:06:42.830Z,101135.00
2023-02-11T10:08:27.797Z,101138.00
2023-02-11T10:10:18.093Z,101137.00
2023-02-11T10:12:02.650Z,101136.00
2023-02-11T10:13:55.550Z,101138.00
2023-02-11T10:15:41.007Z,101133.00
2023-02-11T10:17:26.187Z,101140.00
2023-02-11T10:19:20.463Z,101150.00
2023-02-11T10:21:11.457Z,101154.00
2023-02-11T10:22:50.269Z,101157.00
2023-02-11T10:24:24.364Z,101151.00
2023-02-11T10:26:00.492Z,101159.00
2023-02-11T10:27:36.789Z,101155.00
2023-02-11T10:29:30.045Z,101159.00
2023-02-11T10:31:09.469Z,101164.00
2023-02-11T10:32:48.868Z,101161.00
2023-02-11T10:34:22.196Z,101149.00
2023-02-11T10:35:55.515Z,101153.00
2023-02-11T10:37:28.850Z,101150.00
2023-02-11T10:39:03.861Z,101155.00
2023-02-11T10:40:37.022Z,101153.00
2023-02-11T10:42:15.573Z,101160.00
2023-02-11T10:43:49.396Z,101153.00
2023-02-11T10:45:29.168Z,101158.00
2023-02-11T10:47:10.344Z,101159.00
2023-02-11T10:48:49.393Z,101144.00
2023-02-11T10:50:29.522Z,101150.00
2023-02-11T10:52:23.642Z,101152.00
2023-02-11T10:54:19.399Z,101148.00
2023-02-11T10:55:57.494Z,101143.00
2023-02-11T10:57:37.150Z,101133.00
2023-02-11T10:59:21.983Z,101137.00
2023-02-11T11:00:59.574Z,101134.00
2023-02-11T11:02:38.780Z,101142.00
2023-02-11T11:04:40.487Z,101151.00
2023-02-11T11:06:14.335Z,101137.00
2023-02-11T11:07:55.624Z,101144.00
2023-02-11T11:09:31.347Z,101155.00
2023-02-11T11:11:07.801Z,101147.00
2023-02-11T11:12:49.901Z,101146.00
2023-02-11T11:14:29.172Z,101138.00
2023-02-11T11:16:23.855Z,101147.00
2023-02-11T11:18:22.378Z,101139.00
2023-02-11T11:20:28.180Z,101145.00
2023-02-11T11:22:01.847Z,101143.00
2023-02-11T11:23:38.228Z,101138.00
2023-02-11T11:25:25.548Z,101143.00
2023-02-11T11:27:02.613Z,101145.00
2023-02-11T11:28:43.522Z,101138.00
2023-02-11T11:30:17.746Z,101140.00
2023-02-11T11:31:56.807Z,101151.00
2023-02-11T11:33:34.820Z,101156.00
2023-02-11T11:35:24.536Z,101159.00
2023-02-11T11:37:00.856Z,101157.00
2023-02-11T11:38:37.697Z,101160.00
2023-02-11T11:40:25.234Z,101160.00
2023-02-11T11:42:00.757Z,101160.00
2023-02-11T11:43:34.203Z,101153.00
2023-02-11T11:45:27.442Z,101164.00
2023-02-11T11:47:25.086Z,101153.00
2023-02-11T11:49:19.463Z,101155.00
2023-02-11T11:50:58.146Z,101153.00
2023-02-11T11:52:43.769Z,101151.00
2023-02-11T11:54:21.444Z,101158.00
2023-02-11T11:56:03.503Z,101152.00
2023-02-11T11:57:40.548Z,101155.00
2023-02-11T11:59:16.945Z,101152.00
2023-02-11T12:01:03.805Z,101156.00
2023-02-11T12:03:01.732Z,101151.00
2023-02-11T12:05:00.401Z,101154.00
2023-02-11T12:06:51.710Z,101145.00
2023-02-11T12:08:40.009Z,101151.00
2023-02-11T12:10:59.269Z,101144.00
2023-02-11T12:12:47.342Z,101138.00
2023-02-11T12:14:35.744Z,101144.00
2023-02-11T12:16:24.888Z,101142.00
2023-02-11T12:18:44.335Z,101139.00
2023-02-11T12:20:31.374Z,101144.00
2023-02-11T12:22:13.782Z,101143.00
2023-02-11T12:24:06.136Z,101143.00
2023-02-11T12:25:47.606Z,101150.00
2023-02-11T12:27:41.580Z,101142.00
2023-02-11T12:29:29.754Z,101134.00
2023-02-11T12:31:24.772Z,101127.00
2023-02-11T12:33:11.602Z,101125.00
2023-02-11T12:35:28.288Z,101126.00
2023-02-11T12:37:15.214Z,101118.00
2023-02-11T12:39:09.413Z,101120.00
2023-02-11T12:40:50.070Z,101119.00
2023-02-11T12:43:13.799Z,101132.00
2023-02-11T12:45:07.990Z,101130.00
2023-02-11T12:46:48.996Z,101130.00
2023-02-11T12:49:00.617Z,101126.00
2023-02-11T12:50:48.420Z,101134.00
2023-02-11T12:52:41.211Z,101134.00
2023-02-11T12:54:25.502Z,101137.00
2023-02-11T12:56:07.721Z,101128.00
2023-02-11T12:57:45.324Z,101118.00
2023-02-11T12:59:34.628Z,101127.00
2023-02-11T13:01:17.729Z,101133.00
2023-02-11T13:03:01.588Z,101124.00
2023-02-11T13:04:41.386Z,101128.00
2023-02-11T13:06:20.435Z,101129.00
2023-02-11T13:08:03.996Z,101125.00
2023-02-11T13:09:45.164Z,101142.00
2023-02-11T13:11:23.833Z,101134.00
2023-02-11T13:13:16.874Z,101129.00
2023-02-11T13:14:55.440Z,101128.00
2023-02-11T13:16:40.509Z,101138.00
2023-02-11T13:18:31.457Z,101123.00
2023-02-11T13:20:19.648Z,101131.00
2023-02-11T13:22:11.248Z,101120.00
2023-02-11T13:23:56.653Z,101122.00
2023-02-11T13:25:37.668Z,101119.00
2023-02-11T13:27:27.505Z,101113.00
2023-02-11T13:29:21.884Z,101115.00
2023-02-11T13:31:02.715Z,101115.00
2023-02-11T13:33:20.727Z,101129.00
2023-02-11T13:34:59.850Z,101114.00
2023-02-11T13:36:35.031Z,101115.00
2023-02-11T13:38:21.414Z,101120.00
2023-02-11T13:40:03.537Z,101118.00
2023-02-11T13:41:42.372Z,101128.00
2023-02-11T13:43:25.419Z,101127.00
2023-02-11T13:44:59.375Z,101125.00
2023-02-11T13:46:55.570Z,101123.00
2023-02-11T13:48:34.742Z,101122.00
2023-02-11T13:50:21.818Z,101117.00
2023-02-11T13:51:56.412Z,101117.00
2023-02-11T13:53:30.812Z,101120.00
2023-02-11T13:55:22.426Z,101126.00
2023-02-11T13:57:32.445Z,101134.00
2023-02-11T13:59:30.512Z,101134.00
2023-02-11T14:01:04.305Z,101135.00
2023-02-11T14:02:56.353Z,101134.00
2023-02-11T14:04:49.168Z,101133.00
2023-02-11T14:06:46.694Z,101135.00
2023-02-11T14:08:43.128Z,101136.00
2023-02-11T14:10:53.286Z,101129.00
2023-02-11T14:12:36.986Z,101128.00
2023-02-11T14:14:31.755Z,101131.00
2023-02-11T14:16:09.743Z,101129.00
2023-02-11T14:17:47.989Z,101133.00
2023-02-11T14:19:33.997Z,101133.00
2023-02-11T14:21:15.255Z,101136.00
2023-02-11T14:22:52.604Z,101146.00
2023-02-11T14:24:51.846Z,101144.00
2023-02-11T14:26:40.797Z,101135.00
2023-02-11T14:28:25.179Z,101145.00
2023-02-11T14:30:30.772Z,101138.00
2023-02-11T14:32:19.569Z,101131.00
2023-02-11T14:34:08.706Z,101133.00
2023-02-11T14:36:02.730Z,101131.00
2023-02-11T14:37:50.624Z,101132.00
2023-02-11T14:39:42.330Z,101126.00
2023-02-11T14:41:23.705Z,101129.00
2023-02-11T14:43:02.806Z,101131.00
2023-02-11T14:44:36.845Z,101135.00
2023-02-11T14:46:11.078Z,101138.00
2023-02-11T14:47:52.987Z,101142.00
2023-02-11T14:49:37.446Z,101145.00
2023-02-11T14:51:20.268Z,101146.00
2023-02-11T14:52:54.661Z,101142.00
2023-02-11T14:54:30.093Z,101143.00
2023-02-11T14:56:03.295Z,101145.00
2023-02-11T14:57:37.823Z,101150.00
2023-02-11T14:59:19.254Z,101163.00
2023-02-11T15:01:00.144Z,101163.00
2023-02-11T15:02:40.174Z,101164.00
2023-02-11T15:04:25.861Z,101155.00
2023-02-11T15:06:02.874Z,101159.00
2023-02-11T15:07:37.548Z,101157.00
2023-02-11T15:09:19.608Z,101152.00
2023-02-11T15:10:56.681Z,101161.00
2023-02-11T15:12:30.076Z,101160.00
2023-02-11T15:14:12.279Z,101165.00
2023-02-11T15:15:46.557Z,101162.00
2023-02-11T15:17:25.642Z,101155.00
2023-02-11T15:19:07.791Z,101158.00
2023-02-11T15:20:42.798Z,101163.00
2023-02-11T15:22:23.301Z,101164.00
2023-02-11T15:24:01.900Z,101162.00
2023-02-11T15:25:35.975Z,101167.00
2023-02-11T15:27:15.995Z,101166.00
2023-02-11T15:28:52.032Z,101165.00
2023-02-11T15:30:30.472Z,101170.00
2023-02-11T15:32:17.135Z,101174.00
2023-02-11T15:33:51.422Z,101170.00
2023-02-11T15:35:25.540Z,101171.00
2023-02-11T15:36:58.920Z,101165.00
2023-02-11T15:38:32.980Z,101168.00
2023-02-11T15:40:19.451Z,101172.00
2023-02-11T15:41:52.526Z,101168.00
2023-02-11T15:43:26.262Z,101174.00
2023-02-11T15:45:28.914Z,101172.00
2023-02-11T15:47:02.287Z,101169.00
2023-02-11T15:48:43.436Z,101172.00
2023-02-11T15:50:25.579Z,101173.00
2023-02-11T15:51:59.363Z,101175.00
2023-02-11T15:53:40.586Z,101177.00
2023-02-11T15:55:17.393Z,101170.00
2023-02-11T15:56:55.296Z,101179.00
2023-02-11T15:58:29.932Z,101176.00
2023-02-11T16:00:07.050Z,101177.00
2023-02-11T16:02:08.007Z,101177.00
2023-02-11T16:03:44.324Z,101177.00
2023-02-11T16:05:30.674Z,101179.00
2023-02-11T16:07:05.084Z,101175.00
2023-02-11T16:08:40.513Z,101167.00
2023-02-11T16:10:24.684Z,101178.00
2023-02-11T16:12:07.415Z,101183.00
2023-02-11T16:13:48.379Z,101173.00
2023-02-11T16:15:48.901Z,101181.00
2023-02-11T16:17:29.516Z,101179.00
2023-02-11T16:19:06.630Z,101176.00
2023-02-11T16:20:40.124Z,101183.00
2023-02-11T16:22:19.942Z,101187.00
2023-02-11T16:23:56.704Z,101187.00
2023-02-11T16:25:37.151Z,101193.00
2023-02-11T16:27:23.947Z,101194.00
2023-02-11T16:29:12.197Z,101188.00
2023-02-11T16:30:45.663Z,101196.00
2023-02-11T16:32:22.486Z,101201.00
2023-02-11T16:33:57.085Z,101198.00
2023-02-11T16:35:30.465Z,101200.00
2023-02-11T16:37:06.376Z,101199.00
2023-02-11T16:38:39.505Z,101205.00
2023-02-11T16:40:14.299Z,101207.00
2023-02-11T16:41:47.452Z,101205.00
2023-02-11T16:43:21.332Z,101195.00
2023-02-11T16:44:54.786Z,101205.00
2023-02-11T16:46:28.279Z,101204.00
2023-02-11T16:48:02.936Z,101202.00
2023-02-11T16:49:41.694Z,101205.00
2023-02-11T16:51:15.078Z,101206.00
2023-02-11T16:52:49.120Z,101207.00
2023-02-11T16:54:22.397Z,101202.00
2023-02-11T16:55:55.951Z,101207.00
2023-02-11T16:57:30.391Z,101215.00
2023-02-11T16:59:03.793Z,101218.00
2023-02-11T17:00:37.970Z,101215.00
2023-02-11T17:02:20.763Z,101217.00
2023-02-11T17:03:55.503Z,101225.00
2023-02-11T17:05:29.988Z,101213.00
2023-02-11T17:07:03.316Z,101217.00
2023-02-11T17:08:37.091Z,101214.00
2023-02-11T17:10:17.332Z,101226.00
2023-02-11T17:11:51.504Z,101220.00
2023-02-11T17:13:24.661Z,101229.00
2023-02-11T17:14:57.965Z,101225.00
2023-02-11T17:16:32.490Z,101216.00
2023-02-11T17:18:06.201Z,101218.00
2023-02-11T17:19:40.785Z,101223.00
2023-02-11T17:21:15.833Z,101220.00
2023-02-11T17:22:49.109Z,101224.00
2023-02-11T17:24:23.559Z,101219.00
2023-02-11T17:25:58.114Z,101208.00
2023-02-11T17:27:31.420Z,101222.00
2023-02-11T17:29:06.864Z,101229.00
2023-02-11T17:30:43.421Z,101225.00
2023-02-11T17:32:16.802Z,101224.00
2023-02-11T17:33:50.158Z,101221.00
2023-02-11T17:35:23.442Z,101232.00
2023-02-11T17:36:59.560Z,101232.00
2023-02-11T17:38:32.891Z,101223.00
2023-02-11T17:40:08.237Z,101226.00
2023-02-11T17:41:42.521Z,101225.00
2023-02-11T17:43:16.678Z,101230.00
2023-02-11T17:44:49.855Z,101230.00
2023-02-11T17:46:23.198Z,101230.00
2023-02-11T17:47:56.619Z,101227.00
2023-02-11T17:49:30.286Z,101228.00
2023-02-11T17:51:03.692Z,101229.00
2023-02-11T17:52:38.520Z,101232.00
2023-02-11T17:54:13.521Z,101230.00
2023-02-11T17:55:46.705Z,101237.00
2023-02-11T17:57:19.939Z,101241.00
2023-02-11T17:58:54.029Z,101243.00
2023-02-11T18:00:28.180Z,101239.00
2023-02-11T18:02:01.346Z,101250.00
2023-02-11T18:03:34.739Z,101245.00
2023-02-11T18:05:10.065Z,101251.00
2023-02-11T18:06:43.883Z,101251.00
2023-02-11T18:08:18.515Z,101252.00
2023-02-11T18:09:54.016Z,101256.00
2023-02-11T18:11:27.849Z,101252.00
2023-02-11T18:13:01.582Z,101256.00
2023-02-11T18:14:41.399Z,101264.00
2023-02-11T18:16:15.668Z,101260.00
2023-02-11T18:17:49.932Z,101258.00
2023-02-11T18:19:23.950Z,101266.00
2023-02-11T18:20:59.128Z,101274.00
2023-02-11T18:22:36.475Z,101278.00
2023-02-11T18:24:11.482Z,101281.00
2023-02-11T18:25:44.859Z,101283.00
2023-02-11T18:27:18.057Z,101295.00
2023-02-11T18:28:52.493Z,101296.00
2023-02-11T18:30:25.905Z,101289.00
2023-02-11T18:31:59.706Z,101292.00
2023-02-11T18:33:33.349Z,101287.00
2023-02-11T18:35:08.636Z,101291.00
2023-02-11T18:36:42.129Z,101285.00
2023-02-11T18:38:15.295Z,101285.00
2023-02-11T18:39:50.035Z,101284.00
2023-02-11T18:41:24.110Z,101283.00
2023-02-11T18:42:57.380Z,101288.00
2023-02-11T18:44:30.737Z,101275.00
2023-02-11T18:46:11.174Z,101273.00